TimeEST,TemperatureF,Dew PointF,Humidity,Sea Level PressureIn,VisibilityMPH,Wind Direction,Wind SpeedMPH,Gust SpeedMPH,PrecipitationIn,Events,Conditions,WindDirDegrees,DateUTC
12:54 AM,39.9,30.9,70,30.01,10.0,WNW,11.5,-,0.00,,Light Drizzle,300,2012-11-04 04:54:00
1:54 AM,39.0,32.0,76,30.01,10.0,WNW,6.9,-,0.00,Rain,Light Rain,290,2012-11-04 05:54:00
1:54 AM,39.0,32.0,76,30.02,10.0,WNW,6.9,-,0.00,,Overcast,300,2012-11-04 06:54:00
2:13 AM,39.2,32.0,75,30.02,10.0,NW,10.4,-,0.00,Rain,Light Rain,310,2012-11-04 07:13:00
2:54 AM,37.9,33.1,83,30.01,10.0,WNW,8.1,-,0.00,Rain,Light Rain,290,2012-11-04 07:54:00
3:54 AM,37.9,33.1,83,30.02,10.0,WNW,9.2,-,0.00,,Light Drizzle,300,2012-11-04 08:54:00
4:54 AM,37.9,33.1,83,30.03,10.0,WNW,5.8,-,0.00,,Light Drizzle,300,2012-11-04 09:54:00
5:10 AM,37.4,33.8,87,30.04,10.0,NW,4.6,-,0.00,,Light Drizzle,310,2012-11-04 10:10:00
5:54 AM,37.9,33.1,83,30.04,10.0,WNW,5.8,-,0.00,,Light Drizzle,290,2012-11-04 10:54:00
6:28 AM,37.4,33.8,87,30.05,10.0,West,6.9,-,0.00,,Light Drizzle,270,2012-11-04 11:28:00
6:54 AM,37.0,33.1,86,30.05,10.0,West,10.4,-,0.00,,Light Drizzle,260,2012-11-04 11:54:00
7:54 AM,37.0,34.0,89,30.05,10.0,West,6.9,-,0.00,,Overcast,280,2012-11-04 12:54:00
8:32 AM,37.4,33.8,87,30.05,10.0,West,9.2,-,0.00,Rain,Light Rain,270,2012-11-04 13:32:00
8:39 AM,37.4,33.8,87,30.05,10.0,WNW,6.9,-,0.00,Rain,Light Rain,290,2012-11-04 13:39:00
8:43 AM,37.4,33.8,87,30.05,10.0,NW,8.1,-,0.00,Rain,Light Rain,310,2012-11-04 13:43:00
8:54 AM,37.9,34.0,86,30.05,10.0,WNW,5.8,-,0.00,Rain,Light Rain,290,2012-11-04 13:54:00
9:43 AM,39.2,33.8,81,30.04,10.0,West,6.9,-,0.00,,Overcast,280,2012-11-04 14:43:00
9:54 AM,39.9,34.0,79,30.05,10.0,NW,10.4,-,0.00,Rain,Light Rain,310,2012-11-04 14:54:00
10:26 AM,39.2,30.2,70,30.05,10.0,WNW,10.4,-,0.00,,Overcast,300,2012-11-04 15:26:00
10:54 AM,41.0,30.9,67,30.05,10.0,NW,9.2,-,0.00,,Overcast,320,2012-11-04 15:54:00
11:13 AM,39.2,30.2,70,30.04,10.0,WNW,9.2,-,0.00,Rain,Light Rain,290,2012-11-04 16:13:00
11:17 AM,39.2,32.0,75,30.04,10.0,West,9.2,-,0.00,Rain,Light Rain,270,2012-11-04 16:17:00
11:54 AM,41.0,30.0,65,30.04,10.0,NW,10.4,-,0.00,,Overcast,320,2012-11-04 16:54:00
12:54 PM,42.1,30.0,62,30.03,10.0,WNW,11.5,-,N/A,,Overcast,290,2012-11-04 17:54:00
1:54 PM,42.1,30.0,62,30.03,10.0,WNW,12.7,-,N/A,,Overcast,290,2012-11-04 18:54:00
2:54 PM,41.0,28.0,60,30.04,10.0,WNW,12.7,-,N/A,,Overcast,300,2012-11-04 19:54:00
3:54 PM,39.0,28.9,67,30.04,10.0,NW,10.4,-,N/A,,Overcast,310,2012-11-04 20:54:00
4:54 PM,37.9,30.0,73,30.05,10.0,West,10.4,-,N/A,,Overcast,280,2012-11-04 21:54:00
5:54 PM,37.0,32.0,82,30.06,10.0,WNW,8.1,-,N/A,,Overcast,300,2012-11-04 22:54:00
6:09 PM,37.4,32.0,81,30.06,10.0,WNW,5.8,-,0.00,Rain-Snow,Light Rain,290,2012-11-04 23:09:00
6:54 PM,36.0,32.0,86,30.07,9.0,West,5.8,-,0.00,Snow,Light Snow,280,2012-11-04 23:54:00
7:45 PM,35.6,32.0,87,30.07,9.0,West,10.4,-,0.00,Snow,Light Snow,260,2012-11-05 00:45:00
7:54 PM,36.0,32.0,86,30.08,9.0,WSW,11.5,-,0.00,Snow,Light Snow,250,2012-11-05 00:54:00
8:54 PM,36.0,30.9,82,30.08,10.0,WSW,9.2,-,0.00,,Overcast,250,2012-11-05 01:54:00
9:54 PM,36.0,30.0,79,30.07,10.0,West,6.9,-,N/A,,Overcast,270,2012-11-05 02:54:00
10:54 PM,36.0,30.0,79,30.06,9.0,West,5.8,-,0.00,Snow,Light Snow,270,2012-11-05 03:54:00